createdAt,value
2022-08-05T00:01:36.366Z,24.80
2022-08-05T00:04:17.106Z,24.80
2022-08-05T00:06:51.557Z,24.80
2022-08-05T00:09:20.327Z,24.80
2022-08-05T00:11:49.555Z,24.90
2022-08-05T00:14:27.624Z,24.80
2022-08-05T00:16:57.312Z,24.80
2022-08-05T00:19:33.616Z,24.80
2022-08-05T00:22:13.493Z,24.80
2022-08-05T00:24:45.884Z,24.80
2022-08-05T00:27:35.875Z,24.80
2022-08-05T00:30:05.031Z,24.80
2022-08-05T00:32:39.477Z,24.70
2022-08-05T00:35:09.625Z,24.60
2022-08-05T00:37:53.086Z,24.50
2022-08-05T00:40:27.408Z,24.50
2022-08-05T00:42:57.772Z,24.40
2022-08-05T00:45:37.987Z,24.40
2022-08-05T00:48:07.830Z,24.30
2022-08-05T00:50:35.958Z,24.30
2022-08-05T00:53:09.869Z,24.30
2022-08-05T00:55:53.896Z,24.30
2022-08-05T00:58:21.935Z,24.30
2022-08-05T01:00:55.712Z,24.30
2022-08-05T01:03:24.297Z,24.30
2022-08-05T01:05:59.180Z,24.30
2022-08-05T01:08:40.529Z,24.20
2022-08-05T01:11:13.682Z,24.20
2022-08-05T01:13:58.217Z,24.10
2022-08-05T01:16:30.584Z,24.10
2022-08-05T01:19:02.134Z,24.10
2022-08-05T01:21:52.485Z,24.10
2022-08-05T01:24:34.037Z,24.10
2022-08-05T01:27:17.698Z,24.10
2022-08-05T01:29:51.783Z,24.00
2022-08-05T01:32:22.085Z,24.00
2022-08-05T01:34:51.056Z,24.00
2022-08-05T01:37:25.016Z,23.90
2022-08-05T01:39:54.866Z,23.90
2022-08-05T01:42:27.650Z,23.90
2022-08-05T01:44:57.227Z,23.90
2022-08-05T01:47:38.706Z,23.90
2022-08-05T01:50:09.323Z,23.80
2022-08-05T01:52:44.417Z,23.80
2022-08-05T01:55:13.037Z,23.80
2022-08-05T01:58:10.466Z,23.80
2022-08-05T02:00:31.182Z,23.80
2022-08-05T02:03:00.168Z,23.70
2022-08-05T02:05:34.284Z,23.70
2022-08-05T02:08:03.880Z,23.70
2022-08-05T02:10:34.873Z,23.70
2022-08-05T02:13:04.805Z,23.70
2022-08-05T02:15:46.846Z,23.70
2022-08-05T02:18:30.821Z,23.70
2022-08-05T02:21:03.402Z,23.70
2022-08-05T02:23:35.717Z,23.70
2022-08-05T02:26:05.899Z,23.60
2022-08-05T02:28:41.483Z,23.60
2022-08-05T02:31:15.713Z,23.60
2022-08-05T02:33:48.618Z,23.50
2022-08-05T02:36:27.453Z,23.60
2022-08-05T02:38:59.159Z,23.60
2022-08-05T02:41:28.969Z,23.50
2022-08-05T02:44:11.179Z,23.50
2022-08-05T02:46:53.826Z,23.50
2022-08-05T02:49:35.680Z,23.50
2022-08-05T02:52:06.797Z,23.40
2022-08-05T02:54:37.391Z,23.40
2022-08-05T02:57:09.765Z,23.40
2022-08-05T02:59:50.278Z,23.40
2022-08-05T03:02:22.345Z,23.40
2022-08-05T03:04:53.275Z,23.30
2022-08-05T03:07:40.375Z,23.40
2022-08-05T03:10:10.874Z,23.30
2022-08-05T03:12:41.463Z,23.40
2022-08-05T03:15:12.460Z,23.40
2022-08-05T03:17:44.753Z,23.40
2022-08-05T03:20:13.729Z,23.50
2022-08-05T03:22:44.088Z,23.50
2022-08-05T03:25:32.684Z,23.50
2022-08-05T03:28:02.885Z,23.40
2022-08-05T03:30:33.712Z,23.40
2022-08-05T03:33:04.106Z,23.40
2022-08-05T03:35:41.052Z,23.50
2022-08-05T03:38:11.573Z,23.50
2022-08-05T03:40:41.447Z,23.40
2022-08-05T03:43:59.324Z,23.30
2022-08-05T03:46:01.812Z,23.30
2022-08-05T03:48:31.310Z,23.30
2022-08-05T03:52:37.264Z,23.30
2022-08-05T03:55:50.219Z,23.30
2022-08-05T03:56:47.731Z,23.30
2022-08-05T03:59:20.394Z,23.30
2022-08-05T04:01:50.287Z,23.30
2022-08-05T04:04:21.315Z,23.20
2022-08-05T04:06:51.408Z,23.30
2022-08-05T04:09:26.086Z,23.20
2022-08-05T04:11:56.760Z,23.40
2022-08-05T04:14:30.206Z,23.40
2022-08-05T04:17:00.011Z,23.50
2022-08-05T04:19:30.361Z,23.50
2022-08-05T04:22:09.883Z,23.50
2022-08-05T04:24:43.971Z,23.50
2022-08-05T04:27:13.481Z,23.50
2022-08-05T04:29:41.704Z,23.60
2022-08-05T04:32:10.479Z,23.60
2022-08-05T04:34:42.923Z,23.60
2022-08-05T04:37:11.503Z,23.70
2022-08-05T04:39:40.863Z,23.70
2022-08-05T04:42:09.978Z,23.70
2022-08-05T04:44:38.928Z,23.80
2022-08-05T04:47:08.746Z,23.90
2022-08-05T04:50:02.468Z,24.00
2022-08-05T04:52:28.357Z,24.00
2022-08-05T04:54:57.457Z,24.10
2022-08-05T04:57:28.671Z,24.10
2022-08-05T04:59:58.758Z,24.20
2022-08-05T05:02:41.297Z,24.20
2022-08-05T05:05:16.886Z,24.30
2022-08-05T05:08:01.681Z,24.30
2022-08-05T05:10:30.478Z,24.40
2022-08-05T05:12:58.667Z,24.40
2022-08-05T05:16:00.524Z,24.40
2022-08-05T05:18:31.012Z,24.40
2022-08-05T05:21:03.621Z,24.50
2022-08-05T05:24:02.386Z,24.50
2022-08-05T05:26:20.166Z,24.50
2022-08-05T05:28:57.066Z,24.50
2022-08-05T05:31:25.205Z,24.50
2022-08-05T05:34:02.467Z,24.50
2022-08-05T05:36:32.350Z,24.50
2022-08-05T05:39:03.707Z,24.60
2022-08-05T05:41:40.642Z,24.60
2022-08-05T05:44:35.777Z,24.50
2022-08-05T05:46:58.446Z,24.50
2022-08-05T05:49:33.194Z,24.40
2022-08-05T05:52:07.210Z,24.30
2022-08-05T05:54:51.045Z,24.30
2022-08-05T05:57:20.153Z,24.30
2022-08-05T05:59:48.843Z,24.30
2022-08-05T06:02:17.392Z,24.20
2022-08-05T06:05:14.659Z,24.10
2022-08-05T06:08:01.447Z,23.90
2022-08-05T06:10:34.509Z,23.90
2022-08-05T06:13:05.380Z,23.70
2022-08-05T06:16:30.953Z,23.70
2022-08-05T06:18:21.946Z,23.70
2022-08-05T06:20:59.723Z,23.50
2022-08-05T06:23:32.141Z,23.60
2022-08-05T06:26:21.011Z,23.60
2022-08-05T06:28:49.878Z,23.40
2022-08-05T06:31:21.998Z,23.40
2022-08-05T06:34:06.074Z,23.20
2022-08-05T06:36:37.395Z,23.40
2022-08-05T06:39:27.118Z,23.40
2022-08-05T06:41:56.598Z,23.30
2022-08-05T06:44:26.884Z,23.40
2022-08-05T06:46:55.023Z,23.40
2022-08-05T06:50:01.964Z,23.40
2022-08-05T06:52:37.461Z,23.40
2022-08-05T06:55:02.521Z,23.50
2022-08-05T06:58:02.507Z,23.60
2022-08-05T07:00:22.218Z,23.60
2022-08-05T07:02:53.579Z,23.70
2022-08-05T07:05:37.541Z,23.60
2022-08-05T07:08:10.737Z,23.70
2022-08-05T07:10:53.201Z,23.70
2022-08-05T07:13:57.147Z,23.50
2022-08-05T07:17:58.678Z,23.40
2022-08-05T07:20:16.815Z,23.20
2022-08-05T07:22:28.559Z,23.20
2022-08-05T07:24:59.525Z,23.40
2022-08-05T07:27:56.455Z,23.30
2022-08-05T07:30:30.999Z,23.30
2022-08-05T07:33:01.303Z,23.20
2022-08-05T07:36:01.875Z,23.20
2022-08-05T07:38:32.015Z,23.20
2022-08-05T07:42:07.210Z,23.00
2022-08-05T07:43:52.962Z,22.90
2022-08-05T07:46:26.075Z,22.80
2022-08-05T07:49:02.247Z,22.80
2022-08-05T07:51:36.217Z,22.80
2022-08-05T07:54:06.341Z,22.80
2022-08-05T07:56:59.883Z,22.80
2022-08-05T07:59:38.981Z,22.80
2022-08-05T08:02:15.885Z,22.80
2022-08-05T08:04:47.036Z,22.90
2022-08-05T08:07:15.437Z,22.90
2022-08-05T08:09:43.843Z,22.90
2022-08-05T08:12:37.171Z,22.80
2022-08-05T08:15:03.667Z,22.90
2022-08-05T08:17:32.866Z,22.80
2022-08-05T08:20:42.863Z,22.70
2022-08-05T08:22:52.791Z,22.70
2022-08-05T08:25:27.082Z,22.70
2022-08-05T08:28:18.283Z,22.80
2022-08-05T08:30:49.843Z,22.90
2022-08-05T08:33:19.158Z,23.00
2022-08-05T08:35:52.883Z,23.10
2022-08-05T08:38:37.834Z,23.20
2022-08-05T08:41:08.648Z,23.30
2022-08-05T08:45:24.353Z,23.40
2022-08-05T08:46:27.626Z,23.40
2022-08-05T08:49:06.296Z,23.50
2022-08-05T08:52:05.901Z,23.50
2022-08-05T08:54:32.974Z,23.30
2022-08-05T08:57:01.142Z,23.10
2022-08-05T08:59:33.513Z,23.20
2022-08-05T09:02:08.593Z,23.20
2022-08-05T09:04:57.844Z,23.20
2022-08-05T09:07:28.974Z,23.10
2022-08-05T09:10:08.470Z,23.10
2022-08-05T09:12:36.876Z,23.40
2022-08-05T09:15:05.964Z,23.50
2022-08-05T09:17:42.335Z,23.70
2022-08-05T09:20:12.367Z,23.80
2022-08-05T09:23:18.808Z,23.90
2022-08-05T09:25:59.889Z,24.00
2022-08-05T09:28:33.218Z,24.10
2022-08-05T09:31:23.354Z,24.00
2022-08-05T09:33:56.676Z,23.90
2022-08-05T09:36:27.346Z,23.80
2022-08-05T09:39:02.388Z,23.90
2022-08-05T09:41:32.926Z,23.90
2022-08-05T09:44:06.405Z,23.90
2022-08-05T09:46:35.303Z,23.90
2022-08-05T09:49:18.993Z,23.90
2022-08-05T09:51:49.533Z,24.00
2022-08-05T09:54:21.464Z,24.10
2022-08-05T09:57:01.105Z,24.30
2022-08-05T09:59:34.998Z,24.50
2022-08-05T10:02:05.258Z,24.70
2022-08-05T10:04:41.091Z,24.90
2022-08-05T10:07:31.848Z,25.40
2022-08-05T10:10:14.325Z,25.60
2022-08-05T10:12:49.289Z,25.40
2022-08-05T10:15:22.906Z,25.40
2022-08-05T10:18:08.718Z,25.40
2022-08-05T10:20:39.354Z,25.10
2022-08-05T10:23:08.845Z,24.80
2022-08-05T10:25:50.189Z,24.80
2022-08-05T10:28:28.977Z,25.70
2022-08-05T10:32:50.893Z,26.40
2022-08-05T10:33:46.011Z,26.50
2022-08-05T10:36:23.645Z,26.40
2022-08-05T10:38:57.277Z,27.00
2022-08-05T10:41:45.185Z,27.70
2022-08-05T10:44:18.246Z,27.70
2022-08-05T10:46:50.570Z,27.80
2022-08-05T10:49:27.009Z,28.60
2022-08-05T10:52:00.324Z,28.60
2022-08-05T10:54:56.925Z,28.60
2022-08-05T10:57:31.836Z,29.10
2022-08-05T11:00:19.085Z,29.40
2022-08-05T11:03:25.532Z,29.20
2022-08-05T11:06:14.706Z,29.20
2022-08-05T11:09:16.622Z,28.80
2022-08-05T11:11:52.936Z,28.90
2022-08-05T11:14:57.693Z,29.20
2022-08-05T11:17:57.905Z,29.30
2022-08-05T11:20:41.751Z,30.10
2022-08-05T11:24:03.051Z,30.30
2022-08-05T11:26:32.525Z,29.60
2022-08-05T11:29:11.841Z,29.10
2022-08-05T11:31:57.045Z,28.90
2022-08-05T11:34:38.491Z,30.10
2022-08-05T11:38:29.410Z,30.20
2022-08-05T11:40:00.732Z,31.00
2022-08-05T11:42:32.998Z,30.80
2022-08-05T11:45:27.062Z,30.70
2022-08-05T11:47:56.950Z,30.60
2022-08-05T11:50:27.005Z,30.20
2022-08-05T11:52:57.958Z,29.70
2022-08-05T11:55:31.762Z,30.00
2022-08-05T11:58:11.053Z,30.10
2022-08-05T12:00:41.345Z,30.30
2022-08-05T12:03:29.064Z,29.90
2022-08-05T12:06:01.616Z,30.00
2022-08-05T12:08:32.811Z,30.10
2022-08-05T12:11:05.677Z,30.10
2022-08-05T12:13:48.678Z,29.90
2022-08-05T12:16:19.550Z,29.70
2022-08-05T12:18:49.542Z,29.80
2022-08-05T12:21:23.570Z,29.80
2022-08-05T12:24:00.119Z,30.00
2022-08-05T12:26:32.956Z,30.10
2022-08-05T12:29:03.297Z,30.00
2022-08-05T12:31:42.480Z,29.50
2022-08-05T12:34:20.386Z,29.40
2022-08-05T12:36:50.052Z,29.50
2022-08-05T12:39:19.267Z,29.50
2022-08-05T12:41:47.412Z,29.70
2022-08-05T12:44:28.542Z,30.00
2022-08-05T12:47:02.376Z,30.30
2022-08-05T12:50:04.403Z,30.40
2022-08-05T12:52:35.304Z,30.30
2022-08-05T12:55:17.990Z,30.30
2022-08-05T12:58:48.829Z,30.20
2022-08-05T13:02:01.962Z,30.00
2022-08-05T13:03:32.321Z,29.70
2022-08-05T13:06:01.239Z,29.40
2022-08-05T13:08:30.153Z,29.60
2022-08-05T13:11:01.273Z,29.80
2022-08-05T13:14:05.755Z,30.10
2022-08-05T13:16:19.976Z,30.30
2022-08-05T13:18:55.188Z,29.70
2022-08-05T13:21:27.870Z,29.40
2022-08-05T13:24:08.921Z,29.30
2022-08-05T13:26:37.297Z,29.20
2022-08-05T13:29:05.658Z,29.10
2022-08-05T13:32:03.721Z,29.30
2022-08-05T13:34:25.879Z,29.30
2022-08-05T13:36:54.732Z,29.20
2022-08-05T13:40:12.840Z,28.90
2022-08-05T13:42:14.798Z,29.10
2022-08-05T13:44:45.828Z,29.20
2022-08-05T13:47:35.074Z,29.30
2022-08-05T13:50:04.543Z,29.30
2022-08-05T13:52:35.497Z,29.10
2022-08-05T13:55:07.494Z,29.20
2022-08-05T13:57:50.826Z,29.10
2022-08-05T14:00:27.642Z,28.70
2022-08-05T14:02:57.950Z,28.80
2022-08-05T14:05:48.483Z,29.00
2022-08-05T14:08:21.283Z,29.00
2022-08-05T14:11:03.348Z,29.20
2022-08-05T14:13:43.808Z,29.10
2022-08-05T14:16:17.048Z,28.60
2022-08-05T14:18:48.616Z,28.70
2022-08-05T14:22:09.121Z,28.70
2022-08-05T14:24:09.029Z,28.60
2022-08-05T14:26:51.383Z,28.60
2022-08-05T14:29:24.588Z,28.70
2022-08-05T14:32:02.650Z,28.60
2022-08-05T14:34:42.437Z,28.50
2022-08-05T14:37:13.370Z,28.00
2022-08-05T14:39:50.129Z,27.80
2022-08-05T14:42:24.996Z,27.70
2022-08-05T14:44:53.175Z,27.80
2022-08-05T14:48:04.070Z,27.60
2022-08-05T14:50:18.146Z,27.30
2022-08-05T14:52:57.622Z,27.40
2022-08-05T14:55:38.620Z,27.40
2022-08-05T14:58:11.279Z,27.40
2022-08-05T15:00:58.932Z,27.40
2022-08-05T15:03:33.251Z,27.20
2022-08-05T15:06:12.919Z,27.20
2022-08-05T15:08:59.332Z,26.90
2022-08-05T15:11:50.912Z,26.90
2022-08-05T15:14:34.301Z,26.70
2022-08-05T15:17:04.195Z,26.70
2022-08-05T15:19:32.770Z,26.70
2022-08-05T15:22:02.623Z,26.60
2022-08-05T15:24:30.858Z,26.80
2022-08-05T15:26:58.938Z,27.00
2022-08-05T15:29:29.921Z,27.00
2022-08-05T15:32:03.267Z,26.90
2022-08-05T15:34:33.856Z,26.40
2022-08-05T15:37:06.135Z,26.30
2022-08-05T15:40:59.392Z,26.00
2022-08-05T15:42:54.306Z,25.70
2022-08-05T15:45:11.525Z,25.80
2022-08-05T15:47:39.609Z,25.30
2022-08-05T15:50:08.702Z,25.10
2022-08-05T15:52:52.782Z,24.90
2022-08-05T15:55:24.505Z,24.40
2022-08-05T15:57:53.320Z,24.20
2022-08-05T16:00:26.220Z,24.00
2022-08-05T16:03:00.987Z,23.70
2022-08-05T16:05:30.251Z,23.60
2022-08-05T16:08:00.121Z,23.40
2022-08-05T16:10:28.288Z,23.30
2022-08-05T16:12:57.359Z,23.00
2022-08-05T16:15:32.333Z,23.00
2022-08-05T16:18:00.929Z,22.50
2022-08-05T16:20:32.521Z,22.70
2022-08-05T16:23:01.985Z,22.70
2022-08-05T16:25:33.845Z,22.50
2022-08-05T16:28:06.149Z,22.30
2022-08-05T16:30:36.122Z,22.10
2022-08-05T16:33:04.415Z,22.00
2022-08-05T16:35:33.766Z,21.90
2022-08-05T16:38:24.555Z,21.70
2022-08-05T16:40:59.747Z,21.50
2022-08-05T16:43:30.401Z,21.40
2022-08-05T16:46:04.071Z,21.20
2022-08-05T16:48:38.426Z,21.10
2022-08-05T16:51:09.661Z,20.70
2022-08-05T16:54:04.050Z,20.70
2022-08-05T16:56:29.738Z,20.60
2022-08-05T16:58:58.002Z,20.50
2022-08-05T17:01:26.367Z,20.50
2022-08-05T17:03:54.528Z,20.50
2022-08-05T17:06:24.500Z,20.40
2022-08-05T17:08:54.710Z,20.40
2022-08-05T17:11:25.127Z,20.50
2022-08-05T17:13:54.796Z,20.50
2022-08-05T17:16:36.582Z,20.40
2022-08-05T17:19:07.313Z,20.50
2022-08-05T17:21:39.704Z,20.40
2022-08-05T17:24:28.159Z,20.40
2022-08-05T17:26:58.263Z,20.50
2022-08-05T17:29:33.180Z,20.40
2022-08-05T17:32:08.579Z,20.40
2022-08-05T17:34:40.137Z,20.40
2022-08-05T17:37:16.948Z,20.30
2022-08-05T17:40:00.451Z,20.20
2022-08-05T17:42:32.177Z,20.20
2022-08-05T17:45:09.919Z,20.00
2022-08-05T17:47:53.499Z,20.10
2022-08-05T17:50:28.888Z,20.10
2022-08-05T17:53:00.213Z,20.10
2022-08-05T17:55:34.219Z,20.20
2022-08-05T17:58:03.215Z,20.30
2022-08-05T18:00:32.765Z,20.20
2022-08-05T18:03:00.854Z,20.10
2022-08-05T18:05:35.341Z,20.00
2022-08-05T18:08:03.813Z,20.00
2022-08-05T18:10:33.851Z,20.00
2022-08-05T18:13:07.793Z,20.00
2022-08-05T18:15:40.663Z,20.00
2022-08-05T18:18:11.386Z,20.00
2022-08-05T18:20:39.621Z,19.80
2022-08-05T18:23:08.994Z,19.80
2022-08-05T18:25:39.512Z,19.80
2022-08-05T18:28:12.855Z,19.70
2022-08-05T18:30:45.386Z,19.70
2022-08-05T18:33:18.110Z,19.60
2022-08-05T18:36:03.911Z,19.60
2022-08-05T18:38:36.108Z,19.80
2022-08-05T18:41:57.092Z,19.70
2022-08-05T18:43:55.574Z,19.70
2022-08-05T18:46:26.032Z,19.60
2022-08-05T18:48:57.102Z,19.50
2022-08-05T18:52:06.258Z,19.50
2022-08-05T18:54:34.286Z,19.60
2022-08-05T18:57:03.882Z,19.70
2022-08-05T18:59:44.199Z,19.60
2022-08-05T19:02:28.573Z,19.40
2022-08-05T19:05:03.012Z,19.20
2022-08-05T19:07:48.114Z,19.20
2022-08-05T19:10:16.325Z,19.10
2022-08-05T19:12:46.683Z,19.10
2022-08-05T19:15:58.998Z,19.00
2022-08-05T19:18:10.356Z,19.00
2022-08-05T19:20:46.575Z,19.00
2022-08-05T19:24:05.996Z,19.00
2022-08-05T19:26:03.284Z,18.90
2022-08-05T19:28:33.786Z,18.90
2022-08-05T19:31:05.771Z,19.00
2022-08-05T19:33:36.830Z,18.90
2022-08-05T19:36:06.210Z,18.90
2022-08-05T19:38:35.755Z,18.90
2022-08-05T19:41:07.015Z,18.80
2022-08-05T19:44:06.192Z,18.80
2022-08-05T19:46:30.206Z,18.80
2022-08-05T19:49:02.878Z,18.70
2022-08-05T19:52:09.158Z,18.70
2022-08-05T19:54:25.535Z,18.80
2022-08-05T19:56:59.527Z,18.70
2022-08-05T19:59:55.552Z,18.70
2022-08-05T20:02:17.626Z,18.70
2022-08-05T20:04:48.247Z,18.60
2022-08-05T20:07:46.801Z,18.60
2022-08-05T20:10:13.384Z,18.70
2022-08-05T20:12:48.122Z,18.70
2022-08-05T20:15:22.950Z,18.70
2022-08-05T20:18:10.491Z,18.70
2022-08-05T20:20:56.196Z,18.70
2022-08-05T20:23:39.453Z,18.60
2022-08-05T20:26:16.536Z,18.50
2022-08-05T20:28:48.047Z,18.50
2022-08-05T20:31:17.496Z,18.50
2022-08-05T20:33:50.191Z,18.50
2022-08-05T20:36:18.418Z,18.50
2022-08-05T20:38:54.688Z,18.40
2022-08-05T20:41:43.462Z,18.30
2022-08-05T20:44:19.086Z,18.30
2022-08-05T20:46:59.928Z,18.30
2022-08-05T20:49:28.119Z,18.30
2022-08-05T20:51:57.482Z,18.30
2022-08-05T20:54:59.963Z,18.30
2022-08-05T20:57:24.674Z,18.30
2022-08-05T21:00:19.918Z,18.20
2022-08-05T21:02:56.987Z,18.30
2022-08-05T21:05:25.246Z,18.20
2022-08-05T21:07:56.686Z,18.20
2022-08-05T21:10:27.569Z,18.10
2022-08-05T21:13:02.731Z,18.20
2022-08-05T21:15:44.497Z,18.10
2022-08-05T21:18:20.641Z,18.10
2022-08-05T21:20:51.510Z,18.10
2022-08-05T21:23:20.996Z,18.10
2022-08-05T21:25:50.667Z,18.20
2022-08-05T21:28:18.860Z,18.20
2022-08-05T21:30:52.083Z,18.20
2022-08-05T21:33:22.037Z,18.10
2022-08-05T21:35:58.529Z,18.10
2022-08-05T21:38:27.204Z,18.20
2022-08-05T21:40:55.241Z,18.00
2022-08-05T21:43:24.139Z,18.00
2022-08-05T21:45:57.374Z,18.00
2022-08-05T21:48:31.798Z,17.80
2022-08-05T21:51:00.078Z,17.80
2022-08-05T21:53:28.147Z,17.70
2022-08-05T21:56:06.162Z,17.60
2022-08-05T21:58:56.852Z,17.70
2022-08-05T22:01:26.282Z,17.70
2022-08-05T22:03:56.099Z,17.70
2022-08-05T22:06:35.443Z,17.60
2022-08-05T22:09:14.688Z,17.60
2022-08-05T22:11:46.703Z,17.60
2022-08-05T22:14:37.225Z,17.60
2022-08-05T22:17:06.542Z,17.50
2022-08-05T22:20:01.418Z,17.40
2022-08-05T22:22:28.038Z,17.40
2022-08-05T22:25:20.955Z,17.30
2022-08-05T22:28:11.418Z,17.30
2022-08-05T22:30:56.200Z,17.30
2022-08-05T22:33:57.195Z,17.20
2022-08-05T22:36:15.912Z,17.20
2022-08-05T22:38:48.245Z,17.20
2022-08-05T22:42:04.906Z,17.20
2022-08-05T22:44:06.573Z,17.00
2022-08-05T22:46:40.196Z,17.00
2022-08-05T22:49:23.009Z,17.00
2022-08-05T22:52:06.568Z,17.00
2022-08-05T22:54:36.341Z,17.00
2022-08-05T22:57:04.939Z,16.90
2022-08-05T22:59:45.192Z,16.90
2022-08-05T23:02:17.362Z,16.90
2022-08-05T23:04:51.920Z,16.80
2022-08-05T23:07:22.516Z,16.80
2022-08-05T23:09:57.610Z,16.80
2022-08-05T23:12:32.439Z,16.80
2022-08-05T23:15:03.408Z,16.50
2022-08-05T23:17:35.065Z,16.70
2022-08-05T23:20:10.404Z,16.60
2022-08-05T23:22:47.764Z,16.60
2022-08-05T23:25:17.659Z,16.60
2022-08-05T23:28:07.079Z,16.50
2022-08-05T23:30:40.124Z,16.60
2022-08-05T23:33:22.475Z,16.60
2022-08-05T23:35:55.926Z,16.70
2022-08-05T23:38:26.838Z,16.60
2022-08-05T23:40:55.096Z,16.50
2022-08-05T23:43:37.429Z,16.60
2022-08-05T23:46:20.566Z,16.50
2022-08-05T23:48:59.590Z,16.40
2022-08-05T23:51:53.612Z,16.50
2022-08-05T23:54:25.526Z,16.40
2022-08-05T23:56:55.170Z,16.40
2022-08-05T23:59:27.804Z,16.40
